CheckWX is a tool to help pilots better visualize weather data.  It is not intended as a substitute for an official pre-flight weather briefing.

20:50:20 UTC

KLEE TAF
Leesburg International Airport
Leesburg, Florida, USA
KLEE 161928Z 1619/1718 12009KT P6SM VCTS SCT030CB BKN050 TEMPO 1619/1622 VRB15G22KT 3SM TSRA BKN025CB BKN040 FM170100 VRB03KT P6SM VCSH SCT030 BKN100 FM170300 VRB02KT P6SM FEW030 SCT080 BKN200 FM171500 14005KT P6SM VCSH SCT030 BKN050

Jun-16@
19:00 UTC

Jun-16 @ 19:00 UTC

Jun-17@
01:00 UTC

Jun-17 @ 01:00 UTC

KLEE 161928Z 1619/1718 12009KT P6SM VCTS SCT030CB BKN050
Wind
  • 120° at 9 KTS
Conditions
Area Thunderstorm
Cloud Levels
  • Scattered at 3,000' AGL
  • Broken at 5,000' AGL

Jun-16@
19:00 UTC

Jun-16 @ 19:00 UTC

Jun-16@
22:00 UTC

Jun-16 @ 22:00 UTC

TEMPO 1619/1622 VRB15G22KT 3SM TSRA BKN025CB BKN040

Temporary

Temporary Changes expected for less than half the time period

Wind
  • Variable at 15 KTS
  • {Gusting to 22 KTS
Conditions
Thunderstorm, Rain
Cloud Levels
  • Broken at 2,500' AGL
  • Broken at 4,000' AGL

Jun-17@
01:00 UTC

Jun-17 @ 01:00 UTC

Jun-17@
03:00 UTC

Jun-17 @ 03:00 UTC

FM170100 VRB03KT P6SM VCSH SCT030 BKN100

From

From Standard forecast or significant change

Wind
  • Variable at 3 KTS
Cloud Levels
  • Scattered at 3,000' AGL
  • Broken at 10,000' AGL

Jun-17@
03:00 UTC

Jun-17 @ 03:00 UTC

Jun-17@
15:00 UTC

Jun-17 @ 15:00 UTC

FM170300 VRB02KT P6SM FEW030 SCT080 BKN200

From

From Standard forecast or significant change

Wind
  • Variable at 2 KTS
Cloud Levels
  • Few at 3,000' AGL
  • Scattered at 8,000' AGL
  • Broken at 20,000' AGL

Jun-17@
15:00 UTC

Jun-17 @ 15:00 UTC

Jun-17@
18:00 UTC

Jun-17 @ 18:00 UTC

FM171500 14005KT P6SM VCSH SCT030 BKN050

From

From Standard forecast or significant change

Wind
  • 140° at 5 KTS
Cloud Levels
  • Scattered at 3,000' AGL
  • Broken at 5,000' AGL